createdAt,value
2018-07-05T00:01:05.164Z,978.55
2018-07-05T00:02:15.303Z,978.47
2018-07-05T00:03:25.384Z,978.54
2018-07-05T00:04:34.932Z,978.51
2018-07-05T00:05:44.996Z,978.5
2018-07-05T00:06:55.083Z,978.5
2018-07-05T00:08:04.689Z,978.48
2018-07-05T00:09:14.768Z,978.51
2018-07-05T00:10:24.854Z,978.51
2018-07-05T00:11:34.914Z,978.51
2018-07-05T00:12:44.724Z,978.49
2018-07-05T00:13:54.847Z,978.55
2018-07-05T00:15:04.663Z,978.54
2018-07-05T00:16:14.780Z,978.52
2018-07-05T00:17:24.567Z,978.51
2018-07-05T00:18:34.620Z,978.54
2018-07-05T00:19:44.729Z,978.5
2018-07-05T00:20:54.536Z,978.52
2018-07-05T00:22:04.599Z,978.5
2018-07-05T00:23:14.402Z,978.46
2018-07-05T00:24:24.486Z,978.5
2018-07-05T00:25:34.606Z,978.48
2018-07-05T00:26:44.676Z,978.51
2018-07-05T00:27:54.760Z,978.48
2018-07-05T00:29:04.559Z,978.47
2018-07-05T00:30:14.638Z,978.48
2018-07-05T00:31:24.205Z,978.47
2018-07-05T00:32:34.263Z,978.47
2018-07-05T00:33:44.339Z,978.5
2018-07-05T00:34:54.145Z,978.51
2018-07-05T00:36:03.959Z,978.46
2018-07-05T00:37:13.805Z,978.49
2018-07-05T00:38:23.896Z,978.47
2018-07-05T00:39:33.981Z,978.44
2018-07-05T00:40:43.786Z,978.47
2018-07-05T00:41:53.842Z,978.5
2018-07-05T00:43:03.707Z,978.49
2018-07-05T00:44:13.502Z,978.51
2018-07-05T00:45:23.572Z,978.54
2018-07-05T00:46:33.372Z,978.51
2018-07-05T00:47:43.173Z,978.53
2018-07-05T00:48:53.292Z,978.52
2018-07-05T00:50:02.963Z,978.49
2018-07-05T00:51:12.478Z,978.51
2018-07-05T00:52:22.267Z,978.51
2018-07-05T00:53:32.079Z,978.51
2018-07-05T00:54:41.659Z,978.53
2018-07-05T00:55:51.464Z,978.48
2018-07-05T00:57:01.266Z,978.52
2018-07-05T00:58:11.335Z,978.47
2018-07-05T00:59:21.398Z,978.46
2018-07-05T01:00:30.972Z,978.47
2018-07-05T01:01:40.776Z,978.42
2018-07-05T01:02:50.570Z,978.47
2018-07-05T01:04:00.674Z,978.44
2018-07-05T01:05:10.468Z,978.42
2018-07-05T01:06:20.358Z,978.43
2018-07-05T01:07:30.412Z,978.38
2018-07-05T01:08:40.218Z,978.39
2018-07-05T01:09:50.039Z,978.41
2018-07-05T01:10:59.842Z,978.37
2018-07-05T01:12:09.957Z,978.31
2018-07-05T01:13:20.027Z,978.31
2018-07-05T01:14:29.841Z,978.3
2018-07-05T01:15:39.900Z,978.29
2018-07-05T01:16:49.440Z,978.29
2018-07-05T01:17:59.566Z,978.29
2018-07-05T01:19:09.635Z,978.26
2018-07-05T01:20:19.708Z,978.24
2018-07-05T01:21:29.509Z,978.24
2018-07-05T01:22:39.028Z,978.22
2018-07-05T01:23:49.170Z,978.25
2018-07-05T01:24:59.220Z,978.21
2018-07-05T01:26:08.747Z,978.19
2018-07-05T01:27:18.809Z,978.22
2018-07-05T01:28:28.604Z,978.19
2018-07-05T01:29:38.443Z,978.2
2018-07-05T01:30:48.230Z,978.17
2018-07-05T01:31:58.322Z,978.22
2018-07-05T01:33:08.116Z,978.23
2018-07-05T01:34:17.929Z,978.21
2018-07-05T01:35:28.052Z,978.25
2018-07-05T01:36:38.137Z,978.31
2018-07-05T01:37:48.200Z,978.25
2018-07-05T01:38:58.270Z,978.26
2018-07-05T01:40:08.067Z,978.27
2018-07-05T01:41:18.191Z,978.26
2018-07-05T01:42:28.009Z,978.23
2018-07-05T01:43:37.809Z,978.23
2018-07-05T01:44:47.330Z,978.24
2018-07-05T01:45:57.393Z,978.24
2018-07-05T01:47:07.525Z,978.27
2018-07-05T01:48:17.589Z,978.2
2018-07-05T01:49:27.402Z,978.27
2018-07-05T01:50:37.472Z,978.21
2018-07-05T01:51:47.265Z,978.23
2018-07-05T01:52:56.858Z,978.2
2018-07-05T01:54:06.662Z,978.24
2018-07-05T01:55:16.455Z,978.25
2018-07-05T01:56:26.515Z,978.27
2018-07-05T01:57:36.315Z,978.27
2018-07-05T01:58:46.436Z,978.31
2018-07-05T01:59:56.512Z,978.29
2018-07-05T02:01:06.319Z,978.32
2018-07-05T02:02:16.387Z,978.34
2018-07-05T02:03:26.477Z,978.33
2018-07-05T02:04:36.323Z,978.33
2018-07-05T02:05:46.402Z,978.33
2018-07-05T02:06:56.482Z,978.31
2018-07-05T02:08:06.280Z,978.32
2018-07-05T02:09:16.089Z,978.32
2018-07-05T02:10:26.232Z,978.32
2018-07-05T02:11:36.297Z,978.32
2018-07-05T02:12:46.099Z,978.33
2018-07-05T02:13:56.166Z,978.35
2018-07-05T02:15:05.968Z,978.4
2018-07-05T02:16:15.803Z,978.41
2018-07-05T02:17:25.897Z,978.39
2018-07-05T02:18:35.692Z,978.36
2018-07-05T02:19:45.774Z,978.36
2018-07-05T02:20:55.846Z,978.38
2018-07-05T02:22:05.980Z,978.37
2018-07-05T02:23:16.052Z,978.41
2018-07-05T02:24:26.118Z,978.42
2018-07-05T02:25:35.917Z,978.44
2018-07-05T02:26:45.734Z,978.46
2018-07-05T02:27:55.577Z,978.43
2018-07-05T02:29:05.655Z,978.44
2018-07-05T02:30:15.467Z,978.45
2018-07-05T02:31:25.545Z,978.45
2018-07-05T02:32:35.628Z,978.44
2018-07-05T02:33:45.489Z,978.46
2018-07-05T02:34:55.559Z,978.45
2018-07-05T02:36:05.353Z,978.39
2018-07-05T02:37:15.425Z,978.44
2018-07-05T02:38:25.227Z,978.42
2018-07-05T02:39:35.343Z,978.42
2018-07-05T02:40:45.148Z,978.47
2018-07-05T02:41:55.205Z,978.42
2018-07-05T02:43:05.284Z,978.38
2018-07-05T02:44:15.064Z,978.43
2018-07-05T02:45:24.922Z,978.43
2018-07-05T02:46:35.008Z,978.42
2018-07-05T02:47:45.077Z,978.43
2018-07-05T02:48:55.145Z,978.43
2018-07-05T02:50:05.250Z,978.41
2018-07-05T02:51:15.086Z,978.45
2018-07-05T02:52:24.629Z,978.4
2018-07-05T02:53:34.456Z,978.46
2018-07-05T02:54:44.557Z,978.41
2018-07-05T02:55:54.626Z,978.41
2018-07-05T02:57:04.225Z,978.43
2018-07-05T02:58:14.278Z,978.42
2018-07-05T02:59:24.356Z,978.43
2018-07-05T03:04:38.549Z,978.44
2018-07-05T03:05:48.621Z,978.43
2018-07-05T03:06:58.705Z,978.44
2018-07-05T03:08:08.564Z,978.43
2018-07-05T03:09:18.410Z,978.43
2018-07-05T03:10:28.216Z,978.45
2018-07-05T03:11:38.029Z,978.42
2018-07-05T03:12:47.568Z,978.43
2018-07-05T03:13:57.648Z,978.43
2018-07-05T03:15:07.515Z,978.41
2018-07-05T03:16:17.608Z,978.43
2018-07-05T03:17:27.430Z,978.41
2018-07-05T03:18:37.235Z,978.47
2018-07-05T03:19:47.047Z,978.42
2018-07-05T03:20:57.181Z,978.46
2018-07-05T03:22:06.719Z,978.44
2018-07-05T03:23:16.814Z,978.43
2018-07-05T03:24:26.631Z,978.46
2018-07-05T03:25:36.432Z,978.42
2018-07-05T03:26:46.557Z,978.46
2018-07-05T03:27:56.351Z,978.44
2018-07-05T03:29:06.166Z,978.45
2018-07-05T03:30:16.237Z,978.47
2018-07-05T03:31:26.345Z,978.42
2018-07-05T03:32:36.466Z,978.41
2018-07-05T03:33:46.534Z,978.42
2018-07-05T03:34:56.339Z,978.49
2018-07-05T03:36:06.415Z,978.45
2018-07-05T03:37:16.492Z,978.45
2018-07-05T03:38:26.608Z,978.48
2018-07-05T03:39:36.674Z,978.47
2018-07-05T03:40:46.746Z,978.5
2018-07-05T03:41:56.828Z,978.5
2018-07-05T03:43:06.947Z,978.5
2018-07-05T03:44:17.069Z,978.47
2018-07-05T03:45:27.171Z,978.45
2018-07-05T03:46:37.248Z,978.4
2018-07-05T03:47:47.306Z,978.41
2018-07-05T03:48:56.828Z,978.43
2018-07-05T03:50:06.668Z,978.43
2018-07-05T03:51:16.482Z,978.51
2018-07-05T03:52:26.290Z,978.45
2018-07-05T03:53:36.109Z,978.42
2018-07-05T03:54:46.176Z,978.41
2018-07-05T03:55:56.301Z,978.4
2018-07-05T03:57:05.290Z,978.42
2018-07-05T03:58:14.825Z,978.43
2018-07-05T03:59:24.892Z,978.47
2018-07-05T04:00:34.677Z,978.43
2018-07-05T04:01:44.794Z,978.46
2018-07-05T04:02:54.340Z,978.42
2018-07-05T04:04:04.419Z,978.46
2018-07-05T04:05:14.480Z,978.44
2018-07-05T04:06:24.544Z,978.41
2018-07-05T04:07:34.663Z,978.38
2018-07-05T04:08:44.750Z,978.37
2018-07-05T04:09:54.544Z,978.38
2018-07-05T04:11:04.134Z,978.4
2018-07-05T04:12:13.668Z,978.44
2018-07-05T04:13:23.787Z,978.41
2018-07-05T04:14:33.870Z,978.38
2018-07-05T04:15:43.413Z,978.44
2018-07-05T04:16:53.767Z,978.42
2018-07-05T04:18:03.032Z,978.4
2018-07-05T04:19:12.895Z,978.38
2018-07-05T04:20:22.705Z,978.4
2018-07-05T04:21:32.238Z,978.4
2018-07-05T04:22:42.044Z,978.38
2018-07-05T04:23:52.101Z,978.38
2018-07-05T04:25:01.796Z,978.39
2018-07-05T04:26:11.813Z,978.36
2018-07-05T04:27:21.896Z,978.32
2018-07-05T04:28:31.719Z,978.33
2018-07-05T04:29:41.522Z,978.38
2018-07-05T04:30:51.364Z,978.37
2018-07-05T04:32:01.159Z,978.37
2018-07-05T04:33:10.422Z,978.38
2018-07-05T04:34:20.222Z,978.36
2018-07-05T04:35:30.035Z,978.4
2018-07-05T04:36:40.145Z,978.38
2018-07-05T04:37:50.208Z,978.42
2018-07-05T04:39:00.275Z,978.41
2018-07-05T04:40:09.809Z,978.39
2018-07-05T04:41:19.884Z,978.38
2018-07-05T04:42:29.739Z,978.41
2018-07-05T04:43:40.163Z,978.43
2018-07-05T04:44:50.216Z,978.41
2018-07-05T04:46:00.030Z,978.46
2018-07-05T04:47:09.272Z,978.36
2018-07-05T04:48:19.113Z,978.38
2018-07-05T04:49:29.175Z,978.4
2018-07-05T04:50:38.986Z,978.4
2018-07-05T04:51:48.787Z,978.37
2018-07-05T04:52:58.576Z,978.36
2018-07-05T04:54:08.706Z,978.38
2018-07-05T04:55:18.249Z,978.33
2018-07-05T04:56:28.182Z,978.35
2018-07-05T04:57:37.727Z,978.4
2018-07-05T04:58:47.521Z,978.38
2018-07-05T04:59:57.647Z,978.38
2018-07-05T05:01:07.727Z,978.42
2018-07-05T05:02:17.824Z,978.42
2018-07-05T05:03:28.149Z,978.42
2018-07-05T05:04:37.688Z,978.37
2018-07-05T05:05:47.798Z,978.41
2018-07-05T05:06:57.881Z,978.42
2018-07-05T05:08:07.664Z,978.4
2018-07-05T05:09:17.741Z,978.47
2018-07-05T05:10:27.004Z,978.48
2018-07-05T05:11:36.583Z,978.47
2018-07-05T05:12:46.655Z,978.52
2018-07-05T05:13:56.728Z,978.5
2018-07-05T05:15:06.810Z,978.51
2018-07-05T05:16:16.613Z,978.5
2018-07-05T05:17:26.728Z,978.49
2018-07-05T05:18:36.813Z,978.51
2018-07-05T05:19:46.895Z,978.47
2018-07-05T05:20:56.965Z,978.44
2018-07-05T05:22:06.776Z,978.45
2018-07-05T05:23:16.622Z,978.5
2018-07-05T05:24:26.416Z,978.46
2018-07-05T05:25:35.969Z,978.48
2018-07-05T05:26:45.773Z,978.47
2018-07-05T05:27:55.846Z,978.54
2018-07-05T05:29:05.700Z,978.52
2018-07-05T05:30:15.763Z,978.53
2018-07-05T05:31:25.829Z,978.51
2018-07-05T05:32:35.929Z,978.55
2018-07-05T05:33:45.713Z,978.53
2018-07-05T05:34:55.820Z,978.5
2018-07-05T05:36:04.805Z,978.49
2018-07-05T05:37:14.618Z,978.49
2018-07-05T05:38:24.435Z,978.48
2018-07-05T05:39:33.681Z,978.51
2018-07-05T05:40:43.543Z,978.56
2018-07-05T05:41:53.350Z,978.53
2018-07-05T05:43:03.143Z,978.52
2018-07-05T05:44:12.955Z,978.53
2018-07-05T05:45:23.028Z,978.51
2018-07-05T05:46:33.161Z,978.53
2018-07-05T05:47:42.985Z,978.52
2018-07-05T05:48:52.967Z,978.51
2018-07-05T05:50:02.762Z,978.42
2018-07-05T05:51:12.559Z,978.55
2018-07-05T05:52:22.151Z,978.56
2018-07-05T05:53:31.959Z,978.55
2018-07-05T05:54:42.022Z,978.59
2018-07-05T05:55:52.100Z,978.52
2018-07-05T05:57:02.191Z,978.54
2018-07-05T05:58:11.233Z,978.52
2018-07-05T05:59:21.053Z,978.52
2018-07-05T06:00:30.872Z,978.49
2018-07-05T06:01:40.962Z,978.51
2018-07-05T06:02:51.158Z,978.5
2018-07-05T06:04:01.002Z,978.45
2018-07-05T06:05:11.094Z,978.49
2018-07-05T06:06:21.175Z,978.44
2018-07-05T06:07:30.975Z,978.45
2018-07-05T06:08:41.060Z,978.44
2018-07-05T06:09:51.194Z,978.41
2018-07-05T06:11:00.992Z,978.4
2018-07-05T06:12:10.778Z,978.41
2018-07-05T06:13:20.854Z,978.4
2018-07-05T06:14:30.124Z,978.42
2018-07-05T06:15:40.235Z,978.38
2018-07-05T06:16:49.517Z,978.4
2018-07-05T06:17:59.662Z,978.43
2018-07-05T06:19:09.466Z,978.43
2018-07-05T06:20:19.540Z,978.42
2018-07-05T06:21:29.661Z,978.38
2018-07-05T06:22:39.454Z,978.4
2018-07-05T06:23:49.253Z,978.39
2018-07-05T06:24:59.329Z,978.44
2018-07-05T06:26:09.129Z,978.43
2018-07-05T06:27:18.715Z,978.42
2018-07-05T06:28:28.518Z,978.4
2018-07-05T06:29:38.317Z,978.37
2018-07-05T06:30:47.844Z,978.43
2018-07-05T06:31:57.907Z,978.38
2018-07-05T06:33:07.774Z,978.37
2018-07-05T06:34:17.858Z,978.37
2018-07-05T06:35:27.930Z,978.35
2018-07-05T06:36:38.003Z,978.36
2018-07-05T06:37:48.075Z,978.37
2018-07-05T06:38:57.945Z,978.35
2018-07-05T06:40:08.021Z,978.33
2018-07-05T06:41:18.081Z,978.31
2018-07-05T06:42:28.147Z,978.36
2018-07-05T06:43:38.225Z,978.33
2018-07-05T06:44:47.796Z,978.34
2018-07-05T06:45:57.891Z,978.34
2018-07-05T06:47:07.414Z,978.34
2018-07-05T06:48:17.222Z,978.32
2018-07-05T06:49:27.494Z,978.35
2018-07-05T06:50:37.778Z,978.29
2018-07-05T06:51:47.892Z,978.34
2018-07-05T06:52:57.708Z,978.34
2018-07-05T06:54:08.134Z,978.31
2018-07-05T06:55:17.936Z,978.31
2018-07-05T06:56:27.782Z,978.31
2018-07-05T06:57:37.861Z,978.31
2018-07-05T06:58:47.934Z,978.27
2018-07-05T06:59:58.020Z,978.24
2018-07-05T07:01:07.822Z,978.22
2018-07-05T07:02:17.420Z,978.22
2018-07-05T07:03:27.223Z,978.22
2018-07-05T07:04:37.299Z,978.22
2018-07-05T07:05:47.365Z,978.2
2018-07-05T07:06:56.632Z,978.19
2018-07-05T07:08:06.548Z,978.19
2018-07-05T07:09:16.594Z,978.18
2018-07-05T07:10:26.388Z,978.16
2018-07-05T07:11:36.190Z,978.13
2018-07-05T07:12:46.271Z,978.14
2018-07-05T07:13:55.853Z,978.15
2018-07-05T07:15:05.920Z,978.11
2018-07-05T07:16:15.727Z,978.13
2018-07-05T07:17:25.827Z,978.16
2018-07-05T07:18:35.906Z,978.12
2018-07-05T07:19:46.025Z,978.13
2018-07-05T07:20:56.083Z,978.13
2018-07-05T07:22:06.184Z,978.13
2018-07-05T07:23:15.972Z,978.11
2018-07-05T07:24:25.501Z,978.09
2018-07-05T07:25:35.338Z,978.08
2018-07-05T07:26:45.426Z,978.04
2018-07-05T07:27:55.228Z,978.07
2018-07-05T07:29:05.057Z,978.04
2018-07-05T07:30:15.140Z,978.05
2018-07-05T07:31:24.510Z,978.06
2018-07-05T07:32:35.138Z,978.04
2018-07-05T07:33:45.221Z,978.06
2018-07-05T07:34:55.335Z,978.03
2018-07-05T07:36:05.149Z,978.01
2018-07-05T07:37:14.746Z,978.04
2018-07-05T07:38:25.039Z,978.01
2018-07-05T07:39:35.122Z,978.01
2018-07-05T07:40:45.204Z,978.03
2018-07-05T07:41:55.019Z,977.99
2018-07-05T07:43:04.865Z,977.96
2018-07-05T07:44:14.419Z,978.01
2018-07-05T07:45:24.555Z,977.99
2018-07-05T07:46:35.233Z,977.99
2018-07-05T07:47:44.493Z,977.94
2018-07-05T07:48:54.603Z,977.93
2018-07-05T07:50:03.847Z,977.93
2018-07-05T07:51:13.664Z,977.89
2018-07-05T07:52:23.661Z,977.89
2018-07-05T07:53:33.475Z,977.91
2018-07-05T07:54:42.776Z,977.9
2018-07-05T07:55:52.834Z,977.88
2018-07-05T07:57:02.908Z,977.86
2018-07-05T07:58:12.729Z,977.85
2018-07-05T07:59:23.217Z,977.87
2018-07-05T08:00:32.802Z,977.83
2018-07-05T08:01:42.879Z,977.8
2018-07-05T08:02:52.407Z,977.79
2018-07-05T08:04:02.495Z,977.78
2018-07-05T08:05:12.300Z,977.74
2018-07-05T08:06:21.894Z,977.71
2018-07-05T08:07:31.967Z,977.7
2018-07-05T08:08:41.772Z,977.68
2018-07-05T08:09:51.587Z,977.66
2018-07-05T08:11:01.686Z,977.66
2018-07-05T08:12:11.551Z,977.62
2018-07-05T08:13:21.402Z,977.61
2018-07-05T08:14:30.651Z,977.6
2018-07-05T08:15:40.715Z,977.56
2018-07-05T08:16:50.525Z,977.56
2018-07-05T08:18:00.391Z,977.54
2018-07-05T08:19:09.942Z,977.53
2018-07-05T08:20:20.072Z,977.54
2018-07-05T08:21:30.390Z,977.53
2018-07-05T08:22:40.466Z,977.49
2018-07-05T08:23:50.344Z,977.51
2018-07-05T08:25:00.415Z,977.54
2018-07-05T08:26:10.225Z,977.54
2018-07-05T08:27:20.339Z,977.53
2018-07-05T08:28:29.883Z,977.52
2018-07-05T08:29:40.024Z,977.55
2018-07-05T08:30:50.092Z,977.57
2018-07-05T08:32:00.153Z,977.57
2018-07-05T08:33:09.688Z,977.58
2018-07-05T08:34:19.508Z,977.61
2018-07-05T08:35:29.628Z,977.59
2018-07-05T08:36:39.726Z,977.58
2018-07-05T08:37:49.843Z,977.57
2018-07-05T08:38:59.792Z,977.56
2018-07-05T08:40:09.861Z,977.53
2018-07-05T08:41:19.981Z,977.49
2018-07-05T08:42:29.788Z,977.51
2018-07-05T08:43:39.865Z,977.51
2018-07-05T08:44:49.946Z,977.49
2018-07-05T08:46:00.040Z,977.5
2018-07-05T08:47:09.889Z,977.49
2018-07-05T08:48:19.971Z,977.48
2018-07-05T08:49:29.769Z,977.47
2018-07-05T08:50:39.577Z,977.44
2018-07-05T08:51:49.632Z,977.4
2018-07-05T08:52:59.483Z,977.41
2018-07-05T08:54:09.285Z,977.4
2018-07-05T08:55:19.357Z,977.4
2018-07-05T08:56:29.167Z,977.38
2018-07-05T08:57:39.260Z,977.43
2018-07-05T08:58:49.367Z,977.43
2018-07-05T09:00:00.425Z,977.43
2018-07-05T09:01:10.222Z,977.4
2018-07-05T09:02:20.323Z,977.35
2018-07-05T09:03:30.406Z,977.35
2018-07-05T09:04:40.534Z,977.32
2018-07-05T09:05:50.590Z,977.33
2018-07-05T09:07:00.669Z,977.37
2018-07-05T09:08:42.571Z,977.38
2018-07-05T09:09:52.699Z,977.37
2018-07-05T09:11:02.806Z,977.39
2018-07-05T09:12:12.605Z,977.39
2018-07-05T09:13:22.688Z,977.38
2018-07-05T09:14:32.758Z,977.33
2018-07-05T09:15:42.348Z,977.36
2018-07-05T09:16:52.426Z,977.31
2018-07-05T09:18:02.054Z,977.3
2018-07-05T09:19:12.343Z,977.32
2018-07-05T09:20:22.135Z,977.36
2018-07-05T09:21:32.014Z,977.32
2018-07-05T09:22:42.087Z,977.33
2018-07-05T09:23:51.615Z,977.32
2018-07-05T09:25:01.410Z,977.27
2018-07-05T09:26:11.500Z,977.33
2018-07-05T09:27:21.099Z,977.31
2018-07-05T09:28:31.175Z,977.26
2018-07-05T09:29:40.967Z,977.3
2018-07-05T09:30:50.518Z,977.24
2018-07-05T09:32:00.051Z,977.21
2018-07-05T09:33:09.937Z,977.25
2018-07-05T09:34:20.007Z,977.23
2018-07-05T09:35:29.816Z,977.19
2018-07-05T09:36:39.891Z,977.18
2018-07-05T09:37:49.971Z,977.15
2018-07-05T09:38:59.564Z,977.14
2018-07-05T09:40:09.096Z,977.14
2018-07-05T09:41:18.912Z,977.12
2018-07-05T09:42:28.468Z,977.05
2018-07-05T09:43:38.546Z,977.01
2018-07-05T09:44:48.663Z,977.01
2018-07-05T09:45:58.467Z,976.99
2018-07-05T09:47:08.017Z,976.98
2018-07-05T09:48:18.095Z,976.96
2018-07-05T09:49:27.892Z,976.92
2018-07-05T09:50:37.740Z,976.92
2018-07-05T09:51:47.545Z,976.91
2018-07-05T09:52:57.619Z,976.91
2018-07-05T09:54:07.160Z,976.92
2018-07-05T09:55:16.959Z,976.9
2018-07-05T09:56:27.091Z,976.87
2018-07-05T09:57:36.891Z,976.88
2018-07-05T09:58:46.977Z,976.92
2018-07-05T09:59:56.782Z,976.9
2018-07-05T10:01:06.872Z,976.88
2018-07-05T10:02:16.732Z,976.89
2018-07-05T10:03:26.557Z,976.88
2018-07-05T10:04:37.182Z,976.87
2018-07-05T10:05:46.993Z,976.9
2018-07-05T10:06:57.071Z,976.9
2018-07-05T10:08:06.925Z,976.88
2018-07-05T10:09:16.738Z,976.87
2018-07-05T10:10:26.070Z,976.87
2018-07-05T10:11:35.926Z,976.84
2018-07-05T10:12:45.733Z,976.81
2018-07-05T10:13:55.568Z,976.82
2018-07-05T10:15:05.179Z,976.81
2018-07-05T10:16:14.983Z,976.83
2018-07-05T10:17:25.068Z,976.79
2018-07-05T10:18:35.138Z,976.78
2018-07-05T10:19:44.730Z,976.76
2018-07-05T10:20:54.827Z,976.74
2018-07-05T10:22:04.632Z,976.75
2018-07-05T10:23:14.182Z,976.7
2018-07-05T10:24:24.259Z,976.71
2018-07-05T10:25:33.588Z,976.68
2018-07-05T10:26:43.443Z,976.71
2018-07-05T10:27:53.374Z,976.66
2018-07-05T10:29:03.175Z,976.67
2018-07-05T10:30:13.272Z,976.59
2018-07-05T10:31:23.410Z,976.59
2018-07-05T10:32:32.944Z,976.57
2018-07-05T10:33:43.045Z,976.61
2018-07-05T10:34:52.584Z,976.55
2018-07-05T10:36:02.389Z,976.58
2018-07-05T10:37:11.968Z,976.56
2018-07-05T10:38:21.521Z,976.52
2018-07-05T10:39:31.343Z,976.5
2018-07-05T10:40:41.618Z,976.47
2018-07-05T10:41:51.429Z,976.42
2018-07-05T10:43:01.554Z,976.44
2018-07-05T10:44:11.646Z,976.45
2018-07-05T10:45:21.441Z,976.44
2018-07-05T10:46:31.257Z,976.42
2018-07-05T10:47:40.775Z,976.43
2018-07-05T10:48:50.626Z,976.44
2018-07-05T10:50:00.696Z,976.42
2018-07-05T10:51:10.503Z,976.39
2018-07-05T10:52:20.294Z,976.39
2018-07-05T10:53:30.353Z,976.34
2018-07-05T10:54:40.200Z,976.34
2018-07-05T10:55:50.032Z,976.36
2018-07-05T10:56:59.853Z,976.34
2018-07-05T10:58:09.662Z,976.33
2018-07-05T10:59:19.460Z,976.3
2018-07-05T11:00:29.331Z,976.32
2018-07-05T11:01:39.409Z,976.29
2018-07-05T11:02:49.223Z,976.26
2018-07-05T11:03:59.093Z,976.27
2018-07-05T11:05:08.888Z,976.26
2018-07-05T11:06:17.916Z,976.26
2018-07-05T11:07:27.802Z,976.24
2018-07-05T11:08:37.633Z,976.23
2018-07-05T11:09:47.726Z,976.26
2018-07-05T11:10:57.528Z,976.24
2018-07-05T11:12:07.393Z,976.24
2018-07-05T11:13:17.464Z,976.23
2018-07-05T11:14:27.267Z,976.25
2018-07-05T11:15:37.772Z,976.27
2018-07-05T11:16:47.593Z,976.3
2018-07-05T11:17:57.746Z,976.21
2018-07-05T11:19:07.017Z,976.24
2018-07-05T11:20:17.082Z,976.24
2018-07-05T11:21:26.890Z,976.2
2018-07-05T11:22:36.159Z,976.2
2018-07-05T11:23:45.729Z,976.21
2018-07-05T11:24:55.808Z,976.18
2018-07-05T11:26:05.069Z,976.17
2018-07-05T11:27:14.887Z,976.14
2018-07-05T11:28:24.972Z,976.12
2018-07-05T11:29:34.567Z,976.14
2018-07-05T11:30:44.395Z,976.15
2018-07-05T11:31:54.226Z,976.14
2018-07-05T11:33:03.759Z,976.13
2018-07-05T11:34:13.279Z,976.13
2018-07-05T11:35:23.410Z,976.13
2018-07-05T11:36:33.489Z,976.08
2018-07-05T11:37:43.280Z,976.07
2018-07-05T11:38:53.337Z,976.13
2018-07-05T11:40:03.145Z,976.14
2018-07-05T11:41:13.276Z,976.11
2018-07-05T11:42:23.377Z,976.13
2018-07-05T11:43:33.509Z,976.15
2018-07-05T11:44:43.329Z,976.23
2018-07-05T11:45:53.410Z,976.17
2018-07-05T11:47:03.550Z,976.16
2018-07-05T11:48:13.684Z,976.16
2018-07-05T11:49:23.792Z,976.13
2018-07-05T11:50:33.886Z,976.08
2018-07-05T11:51:43.725Z,976.04
2018-07-05T11:52:53.581Z,976
2018-07-05T11:54:03.670Z,976.07
2018-07-05T11:55:13.475Z,976.08
2018-07-05T11:56:23.550Z,976.06
2018-07-05T11:57:33.619Z,975.96
2018-07-05T11:58:43.555Z,975.99
2018-07-05T11:59:53.507Z,975.97
2018-07-05T12:01:03.313Z,975.95
2018-07-05T12:02:13.139Z,975.91
2018-07-05T12:03:22.966Z,975.92
2018-07-05T12:04:32.826Z,975.88
2018-07-05T12:05:42.634Z,975.85
2018-07-05T12:06:52.747Z,975.85
2018-07-05T12:08:02.018Z,975.81
2018-07-05T12:09:11.835Z,975.83
2018-07-05T12:10:21.958Z,975.8
2018-07-05T12:11:32.055Z,975.8
2018-07-05T12:12:42.142Z,975.8
2018-07-05T12:13:51.960Z,975.81
2018-07-05T12:15:02.045Z,975.79
2018-07-05T12:16:11.368Z,975.81
2018-07-05T12:17:21.470Z,975.76
2018-07-05T12:18:31.148Z,975.74
2018-07-05T12:19:41.325Z,975.78
2018-07-05T12:20:51.413Z,975.81
2018-07-05T12:22:01.283Z,975.75
2018-07-05T12:23:11.387Z,975.7
2018-07-05T12:24:21.240Z,975.66
2018-07-05T12:25:30.855Z,975.67
2018-07-05T12:26:40.685Z,975.62
2018-07-05T12:27:50.810Z,975.62
2018-07-05T12:29:00.644Z,975.62
2018-07-05T12:30:10.634Z,975.63
2018-07-05T12:31:20.739Z,975.61
2018-07-05T12:32:30.286Z,975.6
2018-07-05T12:33:40.505Z,975.58
2018-07-05T12:34:50.365Z,975.58
2018-07-05T12:36:00.209Z,975.57
2018-07-05T12:37:10.038Z,975.6
2018-07-05T12:38:20.112Z,975.58
2018-07-05T12:39:30.039Z,975.59
2018-07-05T12:40:40.210Z,975.6
2018-07-05T12:41:50.039Z,975.62
2018-07-05T12:43:00.140Z,975.53
2018-07-05T12:44:09.947Z,975.58
2018-07-05T12:45:19.560Z,975.52
2018-07-05T12:46:29.106Z,975.54
2018-07-05T12:47:38.656Z,975.56
2018-07-05T12:48:48.481Z,975.51
2018-07-05T12:49:58.546Z,975.48
2018-07-05T12:51:08.422Z,975.43
2018-07-05T12:52:18.235Z,975.48
2018-07-05T12:53:28.080Z,975.5
2018-07-05T12:54:38.166Z,975.44
2018-07-05T12:55:48.276Z,975.47
2018-07-05T12:56:58.141Z,975.51
2018-07-05T12:58:07.958Z,975.46
2018-07-05T12:59:18.084Z,975.48
2018-07-05T13:00:27.375Z,975.4
2018-07-05T13:01:36.925Z,975.41
2018-07-05T13:02:47.081Z,975.34
2018-07-05T13:03:57.252Z,975.37
2018-07-05T13:05:07.532Z,975.34
2018-07-05T13:06:17.343Z,975.3
2018-07-05T13:07:27.436Z,975.35
2018-07-05T13:08:37.585Z,975.39
2018-07-05T13:09:47.679Z,975.37
2018-07-05T13:10:57.776Z,975.36
2018-07-05T13:12:07.575Z,975.36
2018-07-05T13:13:17.679Z,975.39
2018-07-05T13:14:27.824Z,975.39
2018-07-05T13:15:37.641Z,975.36
2018-07-05T13:16:47.729Z,975.36
2018-07-05T13:17:57.817Z,975.45
2018-07-05T13:19:07.668Z,975.43
2018-07-05T13:20:17.534Z,975.41
2018-07-05T13:21:27.609Z,975.44
2018-07-05T13:22:37.444Z,975.43
2018-07-05T13:23:47.555Z,975.43
2018-07-05T13:24:57.114Z,975.4
2018-07-05T13:26:06.989Z,975.42
2018-07-05T13:27:17.063Z,975.46
2018-07-05T13:28:26.891Z,975.39
2018-07-05T13:29:36.997Z,975.41
2018-07-05T13:30:46.812Z,975.43
2018-07-05T13:31:55.878Z,975.48
2018-07-05T13:33:05.745Z,975.52
2018-07-05T13:34:15.870Z,975.5
2018-07-05T13:35:25.971Z,975.54
2018-07-05T13:36:36.056Z,975.6
2018-07-05T13:37:45.391Z,975.59
2018-07-05T13:38:54.952Z,975.6
2018-07-05T13:40:04.518Z,975.59
2018-07-05T13:41:14.640Z,975.57
2018-07-05T13:42:24.452Z,975.56
2018-07-05T13:43:34.310Z,975.59
2018-07-05T13:44:44.395Z,975.6
2018-07-05T13:45:54.468Z,975.57
2018-07-05T13:47:04.104Z,975.62
2018-07-05T13:48:14.079Z,975.59
2018-07-05T13:49:23.734Z,975.56
2018-07-05T13:50:33.567Z,975.52
2018-07-05T13:51:43.389Z,975.5
2018-07-05T13:52:53.227Z,975.48
2018-07-05T13:54:02.608Z,975.46
2018-07-05T13:55:12.310Z,975.49
2018-07-05T13:56:22.401Z,975.55
2018-07-05T13:57:32.500Z,975.55
2018-07-05T13:58:42.327Z,975.56
2018-07-05T13:59:52.428Z,975.58
2018-07-05T14:01:02.300Z,975.59
2018-07-05T14:02:12.114Z,975.56
2018-07-05T14:03:22.211Z,975.55
2018-07-05T14:04:32.422Z,975.56
2018-07-05T14:05:42.516Z,975.55
2018-07-05T14:06:52.661Z,975.54
2018-07-05T14:08:02.840Z,975.51
2018-07-05T14:09:12.036Z,975.49
2018-07-05T14:10:22.133Z,975.49
2018-07-05T14:11:31.962Z,975.53
2018-07-05T14:12:42.117Z,975.51
2018-07-05T14:13:51.942Z,975.47
2018-07-05T14:15:02.016Z,975.41
2018-07-05T14:16:11.836Z,975.49
2018-07-05T14:17:21.913Z,975.46
2018-07-05T14:18:32.072Z,975.4
2018-07-05T14:19:42.173Z,975.33
2018-07-05T14:20:52.259Z,975.36
2018-07-05T14:22:02.095Z,975.29
2018-07-05T14:23:11.636Z,975.29
2018-07-05T14:24:21.234Z,975.36
2018-07-05T14:25:30.799Z,975.52
2018-07-05T14:26:40.883Z,975.55
2018-07-05T14:27:50.692Z,975.62
2018-07-05T14:29:00.788Z,975.7
2018-07-05T14:30:10.661Z,975.51
2018-07-05T14:31:20.525Z,975.48
2018-07-05T14:32:31.351Z,975.58
2018-07-05T14:33:41.185Z,975.92
2018-07-05T14:34:51.296Z,976.34
2018-07-05T14:36:01.428Z,976.43
2018-07-05T14:37:11.512Z,976.45
2018-07-05T14:38:21.354Z,976.68
2018-07-05T14:39:31.444Z,976.73
2018-07-05T14:40:41.522Z,976.8